sensor_id;sensor_type;location;lat;lon;timestamp;P1;durP1;ratioP1;P2;durP2;ratioP2
7334;SDS011;3708;42.632;23.378;2023-12-20T00:01:57;13.83;;;9.57;;
7334;SDS011;3708;42.632;23.378;2023-12-20T00:04:24;15.10;;;9.40;;
7334;SDS011;3708;42.632;23.378;2023-12-20T00:06:51;18.83;;;10.23;;
7334;SDS011;3708;42.632;23.378;2023-12-20T00:09:18;13.23;;;9.17;;
7334;SDS011;3708;42.632;23.378;2023-12-20T00:11:44;16.03;;;9.73;;
7334;SDS011;3708;42.632;23.378;2023-12-20T00:14:13;14.63;;;9.67;;
7334;SDS011;3708;42.632;23.378;2023-12-20T00:16:40;15.37;;;9.70;;
7334;SDS011;3708;42.632;23.378;2023-12-20T00:19:07;15.57;;;10.03;;
7334;SDS011;3708;42.632;23.378;2023-12-20T00:21:34;15.97;;;10.20;;
7334;SDS011;3708;42.632;23.378;2023-12-20T00:24:01;16.77;;;10.07;;
7334;SDS011;3708;42.632;23.378;2023-12-20T00:26:28;14.23;;;9.43;;
7334;SDS011;3708;42.632;23.378;2023-12-20T00:28:55;13.57;;;9.27;;
7334;SDS011;3708;42.632;23.378;2023-12-20T00:31:23;15.30;;;9.77;;
7334;SDS011;3708;42.632;23.378;2023-12-20T00:33:51;18.10;;;9.47;;
7334;SDS011;3708;42.632;23.378;2023-12-20T00:36:18;17.47;;;11.00;;
7334;SDS011;3708;42.632;23.378;2023-12-20T00:38:45;11.70;;;8.10;;
7334;SDS011;3708;42.632;23.378;2023-12-20T00:41:12;12.10;;;7.80;;
7334;SDS011;3708;42.632;23.378;2023-12-20T00:43:39;9.87;;;7.37;;
7334;SDS011;3708;42.632;23.378;2023-12-20T00:46:06;10.20;;;6.30;;
7334;SDS011;3708;42.632;23.378;2023-12-20T00:48:35;8.33;;;5.80;;
7334;SDS011;3708;42.632;23.378;2023-12-20T00:51:02;9.83;;;6.87;;
7334;SDS011;3708;42.632;23.378;2023-12-20T00:53:29;9.93;;;6.30;;
7334;SDS011;3708;42.632;23.378;2023-12-20T00:55:56;9.97;;;7.07;;
7334;SDS011;3708;42.632;23.378;2023-12-20T00:58:24;9.90;;;6.80;;
7334;SDS011;3708;42.632;23.378;2023-12-20T01:00:53;9.07;;;6.20;;
7334;SDS011;3708;42.632;23.378;2023-12-20T01:03:20;14.63;;;7.10;;
7334;SDS011;3708;42.632;23.378;2023-12-20T01:05:49;8.70;;;6.00;;
7334;SDS011;3708;42.632;23.378;2023-12-20T01:08:16;8.23;;;5.80;;
7334;SDS011;3708;42.632;23.378;2023-12-20T01:10:43;11.63;;;7.17;;
7334;SDS011;3708;42.632;23.378;2023-12-20T01:13:09;9.30;;;6.73;;
7334;SDS011;3708;42.632;23.378;2023-12-20T01:15:36;8.20;;;6.13;;
7334;SDS011;3708;42.632;23.378;2023-12-20T01:18:04;9.57;;;6.47;;
7334;SDS011;3708;42.632;23.378;2023-12-20T01:20:31;7.43;;;6.17;;
7334;SDS011;3708;42.632;23.378;2023-12-20T01:22:59;8.17;;;5.90;;
7334;SDS011;3708;42.632;23.378;2023-12-20T01:25:26;9.77;;;6.30;;
7334;SDS011;3708;42.632;23.378;2023-12-20T01:27:53;9.30;;;6.33;;
7334;SDS011;3708;42.632;23.378;2023-12-20T01:30:20;7.87;;;6.20;;
7334;SDS011;3708;42.632;23.378;2023-12-20T01:32:47;11.57;;;7.40;;
7334;SDS011;3708;42.632;23.378;2023-12-20T01:35:14;11.13;;;7.57;;
7334;SDS011;3708;42.632;23.378;2023-12-20T01:37:41;10.33;;;7.47;;
7334;SDS011;3708;42.632;23.378;2023-12-20T01:40:10;9.63;;;6.93;;
7334;SDS011;3708;42.632;23.378;2023-12-20T01:42:37;16.20;;;7.67;;
7334;SDS011;3708;42.632;23.378;2023-12-20T01:45:04;10.50;;;7.13;;
7334;SDS011;3708;42.632;23.378;2023-12-20T01:47:32;12.07;;;7.47;;
7334;SDS011;3708;42.632;23.378;2023-12-20T01:49:59;11.40;;;6.83;;
7334;SDS011;3708;42.632;23.378;2023-12-20T01:52:28;9.37;;;7.30;;
7334;SDS011;3708;42.632;23.378;2023-12-20T01:54:56;11.07;;;7.13;;
7334;SDS011;3708;42.632;23.378;2023-12-20T01:57:29;10.57;;;7.33;;
7334;SDS011;3708;42.632;23.378;2023-12-20T01:59:57;10.63;;;7.33;;
7334;SDS011;3708;42.632;23.378;2023-12-20T02:02:24;10.17;;;6.53;;
7334;SDS011;3708;42.632;23.378;2023-12-20T02:04:54;10.53;;;7.50;;
7334;SDS011;3708;42.632;23.378;2023-12-20T02:07:21;9.43;;;6.47;;
7334;SDS011;3708;42.632;23.378;2023-12-20T02:09:49;9.80;;;6.90;;
7334;SDS011;3708;42.632;23.378;2023-12-20T02:12:16;10.07;;;6.57;;
7334;SDS011;3708;42.632;23.378;2023-12-20T02:14:46;10.97;;;7.33;;
7334;SDS011;3708;42.632;23.378;2023-12-20T02:17:15;9.13;;;6.40;;
7334;SDS011;3708;42.632;23.378;2023-12-20T02:19:43;10.37;;;7.60;;
7334;SDS011;3708;42.632;23.378;2023-12-20T02:22:11;9.73;;;6.77;;
7334;SDS011;3708;42.632;23.378;2023-12-20T02:24:38;9.67;;;6.70;;
7334;SDS011;3708;42.632;23.378;2023-12-20T02:27:06;9.77;;;7.03;;
7334;SDS011;3708;42.632;23.378;2023-12-20T02:29:34;10.60;;;6.87;;
7334;SDS011;3708;42.632;23.378;2023-12-20T02:32:01;10.63;;;6.97;;
7334;SDS011;3708;42.632;23.378;2023-12-20T02:34:29;9.77;;;6.60;;
7334;SDS011;3708;42.632;23.378;2023-12-20T02:36:56;11.67;;;8.20;;
7334;SDS011;3708;42.632;23.378;2023-12-20T02:39:24;11.23;;;7.67;;
7334;SDS011;3708;42.632;23.378;2023-12-20T02:41:52;10.70;;;7.10;;
7334;SDS011;3708;42.632;23.378;2023-12-20T02:44:19;13.03;;;7.70;;
7334;SDS011;3708;42.632;23.378;2023-12-20T02:46:46;13.13;;;8.10;;
7334;SDS011;3708;42.632;23.378;2023-12-20T02:49:13;12.30;;;8.43;;
7334;SDS011;3708;42.632;23.378;2023-12-20T02:51:40;11.70;;;8.50;;
7334;SDS011;3708;42.632;23.378;2023-12-20T02:54:07;9.70;;;6.93;;
7334;SDS011;3708;42.632;23.378;2023-12-20T02:56:35;11.20;;;7.70;;
7334;SDS011;3708;42.632;23.378;2023-12-20T02:59:02;13.17;;;8.20;;
7334;SDS011;3708;42.632;23.378;2023-12-20T03:01:30;12.17;;;8.03;;
7334;SDS011;3708;42.632;23.378;2023-12-20T03:03:58;12.57;;;8.63;;
7334;SDS011;3708;42.632;23.378;2023-12-20T03:06:25;13.80;;;8.67;;
7334;SDS011;3708;42.632;23.378;2023-12-20T03:08:52;10.03;;;7.23;;
7334;SDS011;3708;42.632;23.378;2023-12-20T03:11:19;11.50;;;8.23;;
7334;SDS011;3708;42.632;23.378;2023-12-20T03:13:47;12.97;;;7.93;;
7334;SDS011;3708;42.632;23.378;2023-12-20T03:16:14;11.97;;;7.97;;
7334;SDS011;3708;42.632;23.378;2023-12-20T03:18:41;15.57;;;9.13;;
7334;SDS011;3708;42.632;23.378;2023-12-20T03:21:08;13.10;;;8.87;;
7334;SDS011;3708;42.632;23.378;2023-12-20T03:23:35;15.17;;;9.70;;
7334;SDS011;3708;42.632;23.378;2023-12-20T03:26:03;13.57;;;8.93;;
7334;SDS011;3708;42.632;23.378;2023-12-20T03:28:29;13.67;;;9.30;;
7334;SDS011;3708;42.632;23.378;2023-12-20T03:30:58;14.17;;;8.47;;
7334;SDS011;3708;42.632;23.378;2023-12-20T03:33:28;12.67;;;8.10;;
7334;SDS011;3708;42.632;23.378;2023-12-20T03:35:55;13.43;;;7.83;;
7334;SDS011;3708;42.632;23.378;2023-12-20T03:38:22;14.37;;;10.00;;
7334;SDS011;3708;42.632;23.378;2023-12-20T03:40:49;16.97;;;10.43;;
7334;SDS011;3708;42.632;23.378;2023-12-20T03:43:16;19.27;;;10.67;;
7334;SDS011;3708;42.632;23.378;2023-12-20T03:45:43;18.17;;;12.10;;
7334;SDS011;3708;42.632;23.378;2023-12-20T03:48:12;12.20;;;8.30;;
7334;SDS011;3708;42.632;23.378;2023-12-20T03:50:40;17.87;;;11.93;;
7334;SDS011;3708;42.632;23.378;2023-12-20T03:53:06;20.17;;;14.70;;
7334;SDS011;3708;42.632;23.378;2023-12-20T03:55:33;22.90;;;15.60;;
7334;SDS011;3708;42.632;23.378;2023-12-20T03:58:00;16.80;;;12.17;;
7334;SDS011;3708;42.632;23.378;2023-12-20T04:00:27;17.03;;;12.13;;
7334;SDS011;3708;42.632;23.378;2023-12-20T04:02:54;15.40;;;10.77;;
7334;SDS011;3708;42.632;23.378;2023-12-20T04:05:23;15.67;;;11.03;;
7334;SDS011;3708;42.632;23.378;2023-12-20T04:07:49;18.90;;;12.00;;
7334;SDS011;3708;42.632;23.378;2023-12-20T04:10:16;16.33;;;10.30;;
7334;SDS011;3708;42.632;23.378;2023-12-20T04:12:43;14.37;;;9.77;;
7334;SDS011;3708;42.632;23.378;2023-12-20T04:15:10;16.70;;;10.87;;
7334;SDS011;3708;42.632;23.378;2023-12-20T04:17:37;16.87;;;11.47;;
7334;SDS011;3708;42.632;23.378;2023-12-20T04:20:05;18.67;;;11.87;;
7334;SDS011;3708;42.632;23.378;2023-12-20T04:22:34;17.90;;;11.90;;
7334;SDS011;3708;42.632;23.378;2023-12-20T04:25:01;18.53;;;12.17;;
7334;SDS011;3708;42.632;23.378;2023-12-20T04:27:28;19.37;;;12.87;;
7334;SDS011;3708;42.632;23.378;2023-12-20T04:29:55;19.67;;;12.43;;
7334;SDS011;3708;42.632;23.378;2023-12-20T04:32:22;19.33;;;12.67;;
7334;SDS011;3708;42.632;23.378;2023-12-20T04:34:49;17.33;;;12.07;;
7334;SDS011;3708;42.632;23.378;2023-12-20T04:37:16;22.00;;;11.40;;
7334;SDS011;3708;42.632;23.378;2023-12-20T04:39:44;17.00;;;11.43;;
7334;SDS011;3708;42.632;23.378;2023-12-20T04:42:11;15.40;;;10.73;;
7334;SDS011;3708;42.632;23.378;2023-12-20T04:44:38;11.23;;;8.30;;
7334;SDS011;3708;42.632;23.378;2023-12-20T04:47:05;11.73;;;8.63;;
7334;SDS011;3708;42.632;23.378;2023-12-20T04:49:32;14.47;;;8.40;;
7334;SDS011;3708;42.632;23.378;2023-12-20T04:51:59;10.83;;;7.87;;
7334;SDS011;3708;42.632;23.378;2023-12-20T04:54:26;10.73;;;7.13;;
7334;SDS011;3708;42.632;23.378;2023-12-20T04:56:54;13.10;;;6.80;;
7334;SDS011;3708;42.632;23.378;2023-12-20T04:59:21;9.37;;;6.67;;
7334;SDS011;3708;42.632;23.378;2023-12-20T05:01:48;17.43;;;9.23;;
7334;SDS011;3708;42.632;23.378;2023-12-20T05:04:15;17.53;;;11.47;;
7334;SDS011;3708;42.632;23.378;2023-12-20T05:06:42;22.40;;;14.50;;
7334;SDS011;3708;42.632;23.378;2023-12-20T05:09:09;17.07;;;12.50;;
7334;SDS011;3708;42.632;23.378;2023-12-20T05:11:36;32.57;;;22.30;;
7334;SDS011;3708;42.632;23.378;2023-12-20T05:14:04;35.77;;;22.47;;
7334;SDS011;3708;42.632;23.378;2023-12-20T05:16:32;34.53;;;21.50;;
7334;SDS011;3708;42.632;23.378;2023-12-20T05:18:59;40.00;;;21.67;;
7334;SDS011;3708;42.632;23.378;2023-12-20T05:21:31;28.47;;;19.93;;
7334;SDS011;3708;42.632;23.378;2023-12-20T05:23:58;31.77;;;20.17;;
7334;SDS011;3708;42.632;23.378;2023-12-20T05:26:26;62.33;;;20.60;;
7334;SDS011;3708;42.632;23.378;2023-12-20T05:28:54;41.57;;;20.23;;
7334;SDS011;3708;42.632;23.378;2023-12-20T05:31:23;78.50;;;22.23;;
7334;SDS011;3708;42.632;23.378;2023-12-20T05:33:50;80.43;;;23.97;;
7334;SDS011;3708;42.632;23.378;2023-12-20T05:36:17;55.13;;;22.03;;
7334;SDS011;3708;42.632;23.378;2023-12-20T05:38:45;67.87;;;23.03;;
7334;SDS011;3708;42.632;23.378;2023-12-20T05:41:12;60.33;;;23.57;;
7334;SDS011;3708;42.632;23.378;2023-12-20T05:43:39;79.60;;;26.03;;
7334;SDS011;3708;42.632;23.378;2023-12-20T05:46:06;110.57;;;26.40;;
7334;SDS011;3708;42.632;23.378;2023-12-20T05:48:34;62.30;;;22.70;;
7334;SDS011;3708;42.632;23.378;2023-12-20T05:51:01;46.47;;;23.53;;
7334;SDS011;3708;42.632;23.378;2023-12-20T05:53:28;45.03;;;22.70;;
7334;SDS011;3708;42.632;23.378;2023-12-20T05:55:55;40.43;;;22.83;;
7334;SDS011;3708;42.632;23.378;2023-12-20T05:58:22;42.57;;;22.93;;
7334;SDS011;3708;42.632;23.378;2023-12-20T06:00:49;41.90;;;23.60;;
7334;SDS011;3708;42.632;23.378;2023-12-20T06:03:16;44.83;;;24.40;;
7334;SDS011;3708;42.632;23.378;2023-12-20T06:05:44;43.07;;;23.10;;
7334;SDS011;3708;42.632;23.378;2023-12-20T06:08:11;45.90;;;22.07;;
7334;SDS011;3708;42.632;23.378;2023-12-20T06:10:38;62.53;;;22.90;;
7334;SDS011;3708;42.632;23.378;2023-12-20T06:13:05;48.87;;;22.17;;
7334;SDS011;3708;42.632;23.378;2023-12-20T06:15:32;115.93;;;25.50;;
7334;SDS011;3708;42.632;23.378;2023-12-20T06:18:00;84.10;;;23.63;;
7334;SDS011;3708;42.632;23.378;2023-12-20T06:20:28;61.70;;;21.20;;
7334;SDS011;3708;42.632;23.378;2023-12-20T06:22:56;81.90;;;21.80;;
7334;SDS011;3708;42.632;23.378;2023-12-20T06:25:23;79.30;;;20.60;;
7334;SDS011;3708;42.632;23.378;2023-12-20T06:27:51;72.03;;;21.53;;
7334;SDS011;3708;42.632;23.378;2023-12-20T06:30:18;83.50;;;21.60;;
7334;SDS011;3708;42.632;23.378;2023-12-20T06:32:45;57.97;;;20.67;;
7334;SDS011;3708;42.632;23.378;2023-12-20T06:35:12;42.30;;;20.63;;
7334;SDS011;3708;42.632;23.378;2023-12-20T06:37:40;53.43;;;21.43;;
7334;SDS011;3708;42.632;23.378;2023-12-20T06:40:09;38.57;;;19.83;;
7334;SDS011;3708;42.632;23.378;2023-12-20T06:42:37;43.83;;;20.03;;
7334;SDS011;3708;42.632;23.378;2023-12-20T06:45:04;32.87;;;20.23;;
7334;SDS011;3708;42.632;23.378;2023-12-20T06:47:31;32.47;;;20.23;;
7334;SDS011;3708;42.632;23.378;2023-12-20T06:49:59;35.50;;;20.57;;
7334;SDS011;3708;42.632;23.378;2023-12-20T06:52:26;36.87;;;19.40;;
7334;SDS011;3708;42.632;23.378;2023-12-20T06:54:53;36.53;;;20.43;;
7334;SDS011;3708;42.632;23.378;2023-12-20T06:57:21;34.63;;;19.70;;
7334;SDS011;3708;42.632;23.378;2023-12-20T06:59:48;37.73;;;21.53;;
7334;SDS011;3708;42.632;23.378;2023-12-20T07:02:17;35.13;;;20.10;;
7334;SDS011;3708;42.632;23.378;2023-12-20T07:04:44;33.77;;;19.33;;
7334;SDS011;3708;42.632;23.378;2023-12-20T07:07:11;34.17;;;19.67;;
7334;SDS011;3708;42.632;23.378;2023-12-20T07:09:38;32.87;;;20.07;;
7334;SDS011;3708;42.632;23.378;2023-12-20T07:12:07;32.33;;;19.30;;
7334;SDS011;3708;42.632;23.378;2023-12-20T07:14:36;36.53;;;19.57;;
7334;SDS011;3708;42.632;23.378;2023-12-20T07:17:03;26.87;;;16.93;;
7334;SDS011;3708;42.632;23.378;2023-12-20T07:19:30;24.83;;;15.43;;
7334;SDS011;3708;42.632;23.378;2023-12-20T07:21:57;26.87;;;15.80;;
7334;SDS011;3708;42.632;23.378;2023-12-20T07:24:24;28.00;;;17.33;;
7334;SDS011;3708;42.632;23.378;2023-12-20T07:26:51;28.93;;;17.57;;
7334;SDS011;3708;42.632;23.378;2023-12-20T07:29:18;24.13;;;14.73;;
7334;SDS011;3708;42.632;23.378;2023-12-20T07:31:47;26.83;;;17.47;;
7334;SDS011;3708;42.632;23.378;2023-12-20T07:34:14;28.40;;;19.03;;
7334;SDS011;3708;42.632;23.378;2023-12-20T07:36:41;27.37;;;17.73;;
7334;SDS011;3708;42.632;23.378;2023-12-20T07:39:08;31.33;;;19.47;;
7334;SDS011;3708;42.632;23.378;2023-12-20T07:41:35;27.43;;;17.50;;
7334;SDS011;3708;42.632;23.378;2023-12-20T07:44:03;28.40;;;18.10;;
7334;SDS011;3708;42.632;23.378;2023-12-20T07:46:30;27.23;;;18.60;;
7334;SDS011;3708;42.632;23.378;2023-12-20T07:48:59;25.90;;;18.47;;
7334;SDS011;3708;42.632;23.378;2023-12-20T07:51:26;33.93;;;19.90;;
7334;SDS011;3708;42.632;23.378;2023-12-20T07:53:53;40.77;;;21.27;;
7334;SDS011;3708;42.632;23.378;2023-12-20T07:56:20;65.43;;;23.27;;
7334;SDS011;3708;42.632;23.378;2023-12-20T07:58:47;62.77;;;23.97;;
7334;SDS011;3708;42.632;23.378;2023-12-20T08:01:15;57.47;;;24.60;;
7334;SDS011;3708;42.632;23.378;2023-12-20T08:03:42;67.57;;;27.50;;
7334;SDS011;3708;42.632;23.378;2023-12-20T08:06:11;66.53;;;29.97;;
7334;SDS011;3708;42.632;23.378;2023-12-20T08:08:38;72.97;;;30.10;;
7334;SDS011;3708;42.632;23.378;2023-12-20T08:11:05;74.97;;;30.60;;
7334;SDS011;3708;42.632;23.378;2023-12-20T08:13:32;84.37;;;30.27;;
7334;SDS011;3708;42.632;23.378;2023-12-20T08:15:59;82.53;;;31.80;;
7334;SDS011;3708;42.632;23.378;2023-12-20T08:18:28;125.27;;;32.07;;
7334;SDS011;3708;42.632;23.378;2023-12-20T08:20:55;62.80;;;29.30;;
7334;SDS011;3708;42.632;23.378;2023-12-20T08:23:23;88.47;;;30.47;;
7334;SDS011;3708;42.632;23.378;2023-12-20T08:25:50;67.77;;;28.60;;
7334;SDS011;3708;42.632;23.378;2023-12-20T08:28:17;57.43;;;29.27;;
7334;SDS011;3708;42.632;23.378;2023-12-20T08:30:44;54.87;;;29.23;;
7334;SDS011;3708;42.632;23.378;2023-12-20T08:33:11;68.73;;;31.27;;
7334;SDS011;3708;42.632;23.378;2023-12-20T08:35:38;77.20;;;34.27;;
7334;SDS011;3708;42.632;23.378;2023-12-20T08:38:06;78.93;;;33.03;;
7334;SDS011;3708;42.632;23.378;2023-12-20T08:40:34;63.27;;;32.87;;
7334;SDS011;3708;42.632;23.378;2023-12-20T08:43:01;68.77;;;34.17;;
7334;SDS011;3708;42.632;23.378;2023-12-20T08:45:28;69.27;;;34.80;;
7334;SDS011;3708;42.632;23.378;2023-12-20T08:47:55;67.57;;;31.97;;
7334;SDS011;3708;42.632;23.378;2023-12-20T08:50:22;68.47;;;33.37;;
7334;SDS011;3708;42.632;23.378;2023-12-20T08:52:50;62.53;;;33.07;;
7334;SDS011;3708;42.632;23.378;2023-12-20T08:55:17;62.83;;;32.33;;
7334;SDS011;3708;42.632;23.378;2023-12-20T08:57:46;67.93;;;32.77;;
7334;SDS011;3708;42.632;23.378;2023-12-20T09:00:14;63.90;;;31.83;;
7334;SDS011;3708;42.632;23.378;2023-12-20T09:02:41;58.33;;;31.10;;
7334;SDS011;3708;42.632;23.378;2023-12-20T09:05:08;70.77;;;35.47;;
7334;SDS011;3708;42.632;23.378;2023-12-20T09:07:35;80.57;;;40.03;;
7334;SDS011;3708;42.632;23.378;2023-12-20T09:10:03;58.40;;;32.70;;
7334;SDS011;3708;42.632;23.378;2023-12-20T09:12:30;51.20;;;29.47;;
7334;SDS011;3708;42.632;23.378;2023-12-20T09:14:58;57.23;;;29.43;;
7334;SDS011;3708;42.632;23.378;2023-12-20T09:17:27;51.80;;;28.57;;
7334;SDS011;3708;42.632;23.378;2023-12-20T09:19:54;58.70;;;31.30;;
7334;SDS011;3708;42.632;23.378;2023-12-20T09:22:21;55.27;;;28.53;;
7334;SDS011;3708;42.632;23.378;2023-12-20T09:24:48;51.07;;;29.47;;
7334;SDS011;3708;42.632;23.378;2023-12-20T09:27:15;52.60;;;28.10;;
7334;SDS011;3708;42.632;23.378;2023-12-20T09:29:42;56.60;;;29.17;;
7334;SDS011;3708;42.632;23.378;2023-12-20T09:32:11;51.27;;;28.67;;
7334;SDS011;3708;42.632;23.378;2023-12-20T09:34:38;55.43;;;30.93;;
7334;SDS011;3708;42.632;23.378;2023-12-20T09:37:05;65.60;;;31.63;;
7334;SDS011;3708;42.632;23.378;2023-12-20T09:39:32;61.53;;;31.90;;
7334;SDS011;3708;42.632;23.378;2023-12-20T09:42:00;55.53;;;31.90;;
7334;SDS011;3708;42.632;23.378;2023-12-20T09:44:28;59.73;;;30.80;;
7334;SDS011;3708;42.632;23.378;2023-12-20T09:46:56;61.87;;;33.53;;
7334;SDS011;3708;42.632;23.378;2023-12-20T09:49:25;60.60;;;32.93;;
7334;SDS011;3708;42.632;23.378;2023-12-20T09:51:53;63.77;;;32.93;;
7334;SDS011;3708;42.632;23.378;2023-12-20T09:54:21;59.47;;;34.70;;
7334;SDS011;3708;42.632;23.378;2023-12-20T09:56:49;66.07;;;34.50;;
7334;SDS011;3708;42.632;23.378;2023-12-20T09:59:16;60.40;;;32.87;;
7334;SDS011;3708;42.632;23.378;2023-12-20T10:01:43;62.57;;;33.27;;
7334;SDS011;3708;42.632;23.378;2023-12-20T10:04:11;59.63;;;34.97;;
7334;SDS011;3708;42.632;23.378;2023-12-20T10:06:41;59.43;;;32.43;;
7334;SDS011;3708;42.632;23.378;2023-12-20T10:09:08;63.57;;;32.43;;
7334;SDS011;3708;42.632;23.378;2023-12-20T10:11:36;56.93;;;33.13;;
7334;SDS011;3708;42.632;23.378;2023-12-20T10:14:03;58.63;;;32.10;;
7334;SDS011;3708;42.632;23.378;2023-12-20T10:16:31;62.20;;;33.47;;
7334;SDS011;3708;42.632;23.378;2023-12-20T10:18:59;62.53;;;32.90;;
7334;SDS011;3708;42.632;23.378;2023-12-20T10:21:27;57.07;;;32.17;;
7334;SDS011;3708;42.632;23.378;2023-12-20T10:23:56;56.07;;;33.77;;
7334;SDS011;3708;42.632;23.378;2023-12-20T10:26:23;54.83;;;32.13;;
7334;SDS011;3708;42.632;23.378;2023-12-20T10:28:53;61.37;;;33.77;;
7334;SDS011;3708;42.632;23.378;2023-12-20T10:31:27;59.67;;;33.93;;
7334;SDS011;3708;42.632;23.378;2023-12-20T10:33:56;58.70;;;34.07;;
7334;SDS011;3708;42.632;23.378;2023-12-20T10:36:25;52.40;;;31.17;;
7334;SDS011;3708;42.632;23.378;2023-12-20T10:38:53;55.33;;;32.63;;
7334;SDS011;3708;42.632;23.378;2023-12-20T10:41:24;54.33;;;31.97;;
7334;SDS011;3708;42.632;23.378;2023-12-20T10:43:53;54.63;;;31.23;;
7334;SDS011;3708;42.632;23.378;2023-12-20T10:46:23;52.63;;;30.67;;
7334;SDS011;3708;42.632;23.378;2023-12-20T10:48:53;48.93;;;28.37;;
7334;SDS011;3708;42.632;23.378;2023-12-20T10:51:21;49.50;;;29.47;;
7334;SDS011;3708;42.632;23.378;2023-12-20T10:53:49;48.63;;;28.97;;
7334;SDS011;3708;42.632;23.378;2023-12-20T10:56:17;39.03;;;26.67;;
7334;SDS011;3708;42.632;23.378;2023-12-20T10:58:46;46.40;;;27.10;;
7334;SDS011;3708;42.632;23.378;2023-12-20T11:01:14;50.03;;;29.03;;
7334;SDS011;3708;42.632;23.378;2023-12-20T11:03:44;52.87;;;31.97;;
7334;SDS011;3708;42.632;23.378;2023-12-20T11:06:18;53.37;;;30.80;;
7334;SDS011;3708;42.632;23.378;2023-12-20T11:08:55;55.17;;;33.23;;
7334;SDS011;3708;42.632;23.378;2023-12-20T11:11:35;55.97;;;32.83;;
7334;SDS011;3708;42.632;23.378;2023-12-20T11:14:14;59.23;;;34.00;;
7334;SDS011;3708;42.632;23.378;2023-12-20T11:16:45;55.13;;;32.87;;
7334;SDS011;3708;42.632;23.378;2023-12-20T11:19:12;55.70;;;32.63;;
7334;SDS011;3708;42.632;23.378;2023-12-20T11:21:40;52.70;;;30.83;;
7334;SDS011;3708;42.632;23.378;2023-12-20T11:24:07;53.63;;;32.50;;
7334;SDS011;3708;42.632;23.378;2023-12-20T11:26:34;51.73;;;31.83;;
7334;SDS011;3708;42.632;23.378;2023-12-20T11:31:59;46.73;;;28.70;;
7334;SDS011;3708;42.632;23.378;2023-12-20T11:34:27;46.60;;;30.57;;
7334;SDS011;3708;42.632;23.378;2023-12-20T11:36:58;44.10;;;28.70;;
7334;SDS011;3708;42.632;23.378;2023-12-20T11:39:26;49.47;;;29.30;;
7334;SDS011;3708;42.632;23.378;2023-12-20T11:41:55;48.87;;;29.33;;
7334;SDS011;3708;42.632;23.378;2023-12-20T11:44:23;50.27;;;29.43;;
7334;SDS011;3708;42.632;23.378;2023-12-20T11:46:54;49.70;;;29.93;;
7334;SDS011;3708;42.632;23.378;2023-12-20T11:49:24;47.33;;;28.40;;
7334;SDS011;3708;42.632;23.378;2023-12-20T11:51:54;45.67;;;28.63;;
7334;SDS011;3708;42.632;23.378;2023-12-20T11:54:21;43.07;;;28.03;;
7334;SDS011;3708;42.632;23.378;2023-12-20T11:56:48;48.53;;;28.60;;
7334;SDS011;3708;42.632;23.378;2023-12-20T11:59:15;46.73;;;27.80;;
7334;SDS011;3708;42.632;23.378;2023-12-20T12:01:48;45.20;;;28.23;;
7334;SDS011;3708;42.632;23.378;2023-12-20T12:04:17;46.67;;;28.43;;
7334;SDS011;3708;42.632;23.378;2023-12-20T12:06:44;47.20;;;29.00;;
7334;SDS011;3708;42.632;23.378;2023-12-20T12:09:12;48.00;;;29.40;;
7334;SDS011;3708;42.632;23.378;2023-12-20T12:11:40;48.60;;;29.90;;
7334;SDS011;3708;42.632;23.378;2023-12-20T12:14:07;49.53;;;30.23;;
7334;SDS011;3708;42.632;23.378;2023-12-20T12:16:34;51.77;;;31.67;;
7334;SDS011;3708;42.632;23.378;2023-12-20T12:19:05;52.50;;;32.07;;
7334;SDS011;3708;42.632;23.378;2023-12-20T12:21:36;52.47;;;30.27;;
7334;SDS011;3708;42.632;23.378;2023-12-20T12:24:06;50.70;;;30.80;;
7334;SDS011;3708;42.632;23.378;2023-12-20T12:26:34;51.07;;;32.60;;
7334;SDS011;3708;42.632;23.378;2023-12-20T12:29:01;54.23;;;33.53;;
7334;SDS011;3708;42.632;23.378;2023-12-20T12:31:28;48.50;;;30.40;;
7334;SDS011;3708;42.632;23.378;2023-12-20T12:33:55;50.33;;;31.40;;
7334;SDS011;3708;42.632;23.378;2023-12-20T12:36:22;48.67;;;30.30;;
7334;SDS011;3708;42.632;23.378;2023-12-20T12:38:51;43.57;;;29.07;;
7334;SDS011;3708;42.632;23.378;2023-12-20T12:41:18;43.77;;;29.13;;
7334;SDS011;3708;42.632;23.378;2023-12-20T12:43:45;45.10;;;28.57;;
7334;SDS011;3708;42.632;23.378;2023-12-20T12:46:12;35.90;;;24.40;;
7334;SDS011;3708;42.632;23.378;2023-12-20T12:48:39;41.13;;;24.80;;
7334;SDS011;3708;42.632;23.378;2023-12-20T12:51:06;40.23;;;27.17;;
7334;SDS011;3708;42.632;23.378;2023-12-20T12:53:37;45.07;;;28.47;;
7334;SDS011;3708;42.632;23.378;2023-12-20T12:56:06;39.10;;;24.90;;
7334;SDS011;3708;42.632;23.378;2023-12-20T12:58:33;33.37;;;22.97;;
7334;SDS011;3708;42.632;23.378;2023-12-20T13:01:00;34.67;;;22.40;;
7334;SDS011;3708;42.632;23.378;2023-12-20T13:03:28;37.67;;;24.33;;
7334;SDS011;3708;42.632;23.378;2023-12-20T13:05:55;35.13;;;22.40;;
7334;SDS011;3708;42.632;23.378;2023-12-20T13:08:22;40.23;;;25.10;;
7334;SDS011;3708;42.632;23.378;2023-12-20T13:10:49;40.70;;;25.47;;
7334;SDS011;3708;42.632;23.378;2023-12-20T13:13:18;39.73;;;26.33;;
7334;SDS011;3708;42.632;23.378;2023-12-20T13:15:45;48.40;;;28.93;;
7334;SDS011;3708;42.632;23.378;2023-12-20T13:18:16;45.60;;;28.67;;
7334;SDS011;3708;42.632;23.378;2023-12-20T13:20:43;43.97;;;28.27;;
7334;SDS011;3708;42.632;23.378;2023-12-20T13:23:11;50.73;;;30.37;;
7334;SDS011;3708;42.632;23.378;2023-12-20T13:25:38;50.97;;;32.87;;
7334;SDS011;3708;42.632;23.378;2023-12-20T13:28:05;54.33;;;31.67;;
7334;SDS011;3708;42.632;23.378;2023-12-20T13:30:35;53.07;;;31.97;;
7334;SDS011;3708;42.632;23.378;2023-12-20T13:33:01;61.73;;;32.47;;
7334;SDS011;3708;42.632;23.378;2023-12-20T13:35:29;52.67;;;31.70;;
7334;SDS011;3708;42.632;23.378;2023-12-20T13:37:56;64.00;;;33.63;;
7334;SDS011;3708;42.632;23.378;2023-12-20T13:40:23;57.33;;;31.67;;
7334;SDS011;3708;42.632;23.378;2023-12-20T13:42:50;53.87;;;32.40;;
7334;SDS011;3708;42.632;23.378;2023-12-20T13:45:17;52.07;;;33.50;;
7334;SDS011;3708;42.632;23.378;2023-12-20T13:47:45;60.20;;;35.77;;
7334;SDS011;3708;42.632;23.378;2023-12-20T13:50:12;67.90;;;35.97;;
7334;SDS011;3708;42.632;23.378;2023-12-20T13:52:39;69.37;;;39.57;;
7334;SDS011;3708;42.632;23.378;2023-12-20T13:55:07;78.17;;;40.20;;
7334;SDS011;3708;42.632;23.378;2023-12-20T13:57:34;81.37;;;41.97;;
7334;SDS011;3708;42.632;23.378;2023-12-20T14:00:03;91.63;;;48.33;;
7334;SDS011;3708;42.632;23.378;2023-12-20T14:02:31;76.40;;;41.93;;
7334;SDS011;3708;42.632;23.378;2023-12-20T14:04:59;79.73;;;41.37;;
7334;SDS011;3708;42.632;23.378;2023-12-20T14:07:26;70.90;;;38.30;;
7334;SDS011;3708;42.632;23.378;2023-12-20T14:09:54;69.73;;;39.23;;
7334;SDS011;3708;42.632;23.378;2023-12-20T14:12:21;79.33;;;43.00;;
7334;SDS011;3708;42.632;23.378;2023-12-20T14:14:49;72.03;;;39.97;;
7334;SDS011;3708;42.632;23.378;2023-12-20T14:17:43;80.43;;;41.23;;
7334;SDS011;3708;42.632;23.378;2023-12-20T14:20:10;79.43;;;41.10;;
7334;SDS011;3708;42.632;23.378;2023-12-20T14:22:38;64.87;;;36.77;;
7334;SDS011;3708;42.632;23.378;2023-12-20T14:25:10;68.13;;;37.47;;
7334;SDS011;3708;42.632;23.378;2023-12-20T14:27:38;74.40;;;38.27;;
7334;SDS011;3708;42.632;23.378;2023-12-20T14:30:07;72.00;;;37.47;;
7334;SDS011;3708;42.632;23.378;2023-12-20T14:43:01;76.70;;;42.67;;
7334;SDS011;3708;42.632;23.378;2023-12-20T14:46:10;71.57;;;38.50;;
7334;SDS011;3708;42.632;23.378;2023-12-20T14:48:37;72.20;;;36.90;;
7334;SDS011;3708;42.632;23.378;2023-12-20T14:51:05;66.20;;;35.63;;
7334;SDS011;3708;42.632;23.378;2023-12-20T14:53:32;73.83;;;38.23;;
7334;SDS011;3708;42.632;23.378;2023-12-20T14:56:14;73.37;;;39.57;;